Time;durP1;ratioP1;P1;durP2;ratioP2;P2;SDS_P1;SDS_P2;PMS_P1;PMS_P2;Temp;Humidity;BMP_temperature;BMP_pressure;BME280_temperature;BME280_humidity;BME280_pressure;Samples;Min_cycle;Max_cycle;Signal;HPM_P1;HPM_P2
2023/11/01 00:00:43;;;;;;;0.30;0.20;;;;;;;13.85;98.58;99484.34;4993418;28;20485;-53
2023/11/01 00:03:10;;;;;;;0.30;0.20;;;;;;;13.90;98.19;99490.31;4993466;28;20544;-53
2023/11/01 00:05:36;;;;;;;0.30;0.20;;;;;;;13.85;98.53;99492.38;5001479;28;20552;-52
2023/11/01 00:08:03;;;;;;;0.30;0.20;;;;;;;13.90;98.07;99486.75;4993134;28;20477;-53
2023/11/01 00:10:29;;;;;;;0.30;0.20;;;;;;;13.84;98.49;99481.75;4993066;28;20899;-52
2023/11/01 00:12:56;;;;;;;0.30;0.20;;;;;;;14.06;97.94;99474.28;4993289;28;20475;-53
2023/11/01 00:15:22;;;;;;;0.30;0.20;;;;;;;14.09;97.43;99471.41;4997288;28;20836;-53
2023/11/01 00:17:48;;;;;;;0.30;0.20;;;;;;;14.22;97.16;99461.75;4984335;28;20453;-52
2023/11/01 00:20:15;;;;;;;0.30;0.20;;;;;;;14.18;97.10;99467.38;4993119;28;20457;-52
2023/11/01 00:22:41;;;;;;;0.30;0.20;;;;;;;14.18;97.38;99457.56;4993070;28;20496;-52
2023/11/01 00:25:08;;;;;;;0.30;0.20;;;;;;;14.09;97.49;99462.53;4992954;28;20956;-53
2023/11/01 00:27:34;;;;;;;0.30;0.20;;;;;;;14.01;97.82;99454.97;4993043;28;20449;-53
2023/11/01 00:30:01;;;;;;;0.30;0.20;;;;;;;13.79;99.03;99468.66;4993177;28;20471;-52
2023/11/01 00:32:27;;;;;;;0.30;0.20;;;;;;;13.90;98.81;99471.59;4993161;28;20583;-53
2023/11/01 00:34:54;;;;;;;0.30;0.20;;;;;;;13.96;98.56;99472.19;4993038;28;20503;-53
2023/11/01 00:37:20;;;;;;;0.30;0.20;;;;;;;14.00;98.13;99463.09;4992794;28;20482;-53
2023/11/01 00:39:47;;;;;;;0.30;0.20;;;;;;;13.89;98.93;99472.53;4993155;28;20460;-53
2023/11/01 00:42:16;;;;;;;0.40;0.30;;;;;;;13.92;98.94;99469.69;4993063;28;20487;-53
2023/11/01 00:44:42;;;;;;;0.30;0.20;;;;;;;14.07;98.75;99467.13;4992934;28;20475;-52
2023/11/01 00:47:09;;;;;;;0.30;0.20;;;;;;;14.01;98.87;99460.31;4992878;28;20453;-52
2023/11/01 00:49:35;;;;;;;0.30;0.20;;;;;;;13.99;98.38;99464.91;4992901;28;20492;-53
2023/11/01 00:52:02;;;;;;;0.30;0.20;;;;;;;14.04;98.56;99459.28;4992817;28;20463;-53
2023/11/01 00:54:28;;;;;;;0.30;0.20;;;;;;;13.96;98.71;99461.50;4992592;28;20862;-53
2023/11/01 00:56:54;;;;;;;0.30;0.20;;;;;;;13.85;99.35;99465.66;4993023;28;20460;-52
2023/11/01 00:59:21;;;;;;;0.30;0.20;;;;;;;13.78;99.92;99466.94;4992870;28;20531;-53
2023/11/01 01:01:47;;;;;;;0.30;0.20;;;;;;;13.90;99.86;99460.03;4992883;28;20453;-53
2023/11/01 01:04:14;;;;;;;0.30;0.20;;;;;;;13.87;100.00;99450.41;4981430;28;20480;-53
2023/11/01 01:06:40;;;;;;;0.87;0.87;;;;;;;13.98;99.64;99451.59;4999298;28;20450;-53
2023/11/01 01:09:07;;;;;;;0.30;0.20;;;;;;;13.96;99.98;99453.50;4979913;28;20457;-53
2023/11/01 01:11:33;;;;;;;0.30;0.20;;;;;;;13.91;99.80;99445.75;4992815;28;20424;-52
2023/11/01 01:14:00;;;;;;;0.30;0.20;;;;;;;13.94;100.00;99446.44;4979978;28;20493;-53
2023/11/01 01:16:26;;;;;;;0.30;0.20;;;;;;;13.96;100.00;99434.78;5005675;28;20449;-53
2023/11/01 01:18:53;;;;;;;0.30;0.20;;;;;;;13.92;100.00;99444.78;4992617;28;20799;-52
2023/11/01 01:21:19;;;;;;;0.30;0.20;;;;;;;13.97;99.98;99437.38;4992438;28;21118;-52
2023/11/01 01:23:46;;;;;;;0.30;0.20;;;;;;;14.02;100.00;99440.66;4992743;28;20483;-52
2023/11/01 01:26:12;;;;;;;0.30;0.20;;;;;;;13.98;100.00;99436.44;4992439;28;20427;-52
2023/11/01 01:28:38;;;;;;;0.30;0.20;;;;;;;14.00;100.00;99433.69;4992593;28;20454;-53
2023/11/01 01:31:05;;;;;;;0.30;0.20;;;;;;;13.99;100.00;99429.28;4992451;28;20935;-53
2023/11/01 01:33:31;;;;;;;0.30;0.20;;;;;;;13.89;100.00;99428.94;4992341;28;20909;-52
2023/11/01 01:35:58;;;;;;;0.30;0.20;;;;;;;13.85;100.00;99422.91;4992616;28;20516;-53
2023/11/01 01:38:24;;;;;;;0.30;0.20;;;;;;;13.70;100.00;99413.06;4992479;28;20947;-52
2023/11/01 01:40:51;;;;;;;0.30;0.20;;;;;;;13.78;100.00;99413.50;4992411;28;20461;-53
2023/11/01 01:43:18;;;;;;;0.30;0.20;;;;;;;13.64;100.00;99405.41;4992474;28;20422;-53
2023/11/01 01:45:51;;;;;;;0.30;0.20;;;;;;;13.59;100.00;99407.47;4992309;28;20451;-52
2023/11/01 01:48:17;;;;;;;0.30;0.20;;;;;;;13.38;100.00;99408.63;4993984;28;20445;-53
2023/11/01 01:50:44;;;;;;;0.30;0.20;;;;;;;13.68;100.00;99412.28;4995922;28;20480;-52
2023/11/01 01:53:11;;;;;;;0.30;0.20;;;;;;;13.55;100.00;99404.09;4995845;28;20489;-53
2023/11/01 01:55:37;;;;;;;0.30;0.20;;;;;;;13.76;100.00;99407.38;4995695;28;20893;-52
2023/11/01 01:58:04;;;;;;;0.30;0.20;;;;;;;13.77;100.00;99402.91;4995893;28;20484;-52
2023/11/01 02:00:32;;;;;;;0.30;0.20;;;;;;;13.89;100.00;99397.75;4995736;28;20912;-52
2023/11/01 02:03:00;;;;;;;0.30;0.20;;;;;;;13.88;100.00;99404.03;4995707;28;20424;-52
2023/11/01 02:05:27;;;;;;;0.30;0.20;;;;;;;13.87;100.00;99407.66;5004215;28;20456;-52
2023/11/01 02:07:54;;;;;;;0.30;0.20;;;;;;;13.84;100.00;99405.16;4995866;28;20471;-52
2023/11/01 02:10:20;;;;;;;0.30;0.20;;;;;;;13.90;100.00;99402.13;4995529;28;20495;-52
2023/11/01 02:12:46;;;;;;;0.30;0.20;;;;;;;13.87;100.00;99390.75;4995580;28;20464;-52
2023/11/01 02:15:13;;;;;;;0.30;0.20;;;;;;;13.89;100.00;99388.88;4998446;28;20460;-52
2023/11/01 02:17:39;;;;;;;0.30;0.20;;;;;;;13.85;100.00;99385.50;5005302;28;20430;-52
2023/11/01 02:20:09;;;;;;;0.30;0.20;;;;;;;14.02;100.00;99381.00;4995387;28;20424;-52
2023/11/01 02:22:36;;;;;;;0.30;0.20;;;;;;;14.00;100.00;99369.56;4995527;28;20466;-52
2023/11/01 02:25:02;;;;;;;0.30;0.20;;;;;;;13.91;100.00;99362.91;4995289;28;20452;-53
2023/11/01 02:27:29;;;;;;;0.30;0.20;;;;;;;14.09;100.00;99369.00;4995293;28;20537;-52
2023/11/01 02:29:55;;;;;;;0.30;0.20;;;;;;;14.04;100.00;99355.91;4995120;28;20817;-52
2023/11/01 02:32:28;;;;;;;0.30;0.20;;;;;;;14.11;100.00;99361.75;4995208;28;20974;-52
2023/11/01 02:34:55;;;;;;;0.30;0.20;;;;;;;14.15;99.59;99357.97;4995167;28;20492;-52
2023/11/01 02:37:21;;;;;;;0.30;0.20;;;;;;;14.15;99.64;99353.50;4995172;28;20424;-53
2023/11/01 02:39:48;;;;;;;0.30;0.20;;;;;;;14.13;100.00;99352.72;4995087;28;20428;-53
2023/11/01 02:42:14;;;;;;;0.30;0.20;;;;;;;14.11;100.00;99343.91;4994985;28;20446;-52
2023/11/01 02:44:41;;;;;;;0.30;0.20;;;;;;;14.13;100.00;99344.72;4994981;28;20557;-52
2023/11/01 02:47:07;;;;;;;0.30;0.20;;;;;;;14.20;100.00;99337.19;4994923;28;20420;-52
2023/11/01 02:49:34;;;;;;;0.30;0.20;;;;;;;14.13;100.00;99338.50;4994920;28;20428;-52
2023/11/01 02:52:00;;;;;;;0.30;0.20;;;;;;;14.29;99.67;99336.66;4995070;28;20518;-52
2023/11/01 02:54:26;;;;;;;0.30;0.20;;;;;;;14.21;99.82;99329.06;4994632;28;20577;-52
2023/11/01 02:56:57;;;;;;;0.30;0.20;;;;;;;14.36;99.63;99331.78;4994767;28;21009;-52
2023/11/01 02:59:23;;;;;;;0.30;0.20;;;;;;;14.31;99.27;99332.06;4985884;28;20485;-52
2023/11/01 03:01:50;;;;;;;0.30;0.20;;;;;;;14.27;100.00;99325.19;4993885;28;20804;-52
2023/11/01 03:04:16;;;;;;;0.30;0.20;;;;;;;14.26;99.86;99328.81;4996566;28;20879;-53
2023/11/01 03:06:43;;;;;;;0.30;0.20;;;;;;;14.31;100.00;99318.69;5000728;28;20540;-52
2023/11/01 03:09:09;;;;;;;0.30;0.20;;;;;;;14.31;99.63;99320.50;4994686;28;20544;-52
2023/11/01 03:11:40;;;;;;;0.30;0.20;;;;;;;14.37;99.71;99325.47;4994342;28;20532;-52
2023/11/01 03:14:07;;;;;;;0.30;0.20;;;;;;;14.36;99.62;99323.75;4994437;28;20490;-52
2023/11/01 03:16:37;;;;;;;0.30;0.20;;;;;;;14.32;99.63;99308.88;5007305;28;20495;-52
2023/11/01 03:19:04;;;;;;;0.30;0.20;;;;;;;14.29;99.99;99311.72;4994487;28;20456;-52
2023/11/01 03:21:31;;;;;;;0.30;0.20;;;;;;;14.25;99.98;99313.69;4994278;28;20462;-52
2023/11/01 03:23:57;;;;;;;0.30;0.20;;;;;;;14.32;99.97;99320.41;4994024;28;20963;-52
2023/11/01 03:26:23;;;;;;;0.30;0.20;;;;;;;14.31;99.53;99315.16;4994288;28;20428;-52
2023/11/01 03:28:50;;;;;;;0.30;0.20;;;;;;;14.34;99.98;99313.16;4994159;28;20925;-52
2023/11/01 03:31:18;;;;;;;0.30;0.20;;;;;;;14.39;99.62;99303.06;4994117;28;20488;-52
2023/11/01 03:33:46;;;;;;;0.30;0.20;;;;;;;14.36;99.59;99303.22;4994114;28;20482;-52
2023/11/01 03:36:13;;;;;;;0.30;0.20;;;;;;;14.39;98.99;99300.41;4994006;28;20507;-52
2023/11/01 03:38:39;;;;;;;0.30;0.20;;;;;;;14.47;99.05;99303.47;4993860;28;20519;-52
2023/11/01 03:41:06;;;;;;;0.30;0.20;;;;;;;14.47;99.33;99299.94;4994130;28;20436;-52
2023/11/01 03:43:33;;;;;;;0.30;0.20;;;;;;;14.46;99.13;99296.41;4993965;28;20420;-52
2023/11/01 03:46:00;;;;;;;0.30;0.20;;;;;;;14.39;99.37;99294.16;4993950;28;20442;-52
2023/11/01 03:48:26;;;;;;;0.30;0.20;;;;;;;14.48;99.31;99296.31;4993823;28;20944;-52
2023/11/01 03:50:53;;;;;;;0.30;0.20;;;;;;;14.47;99.09;99290.13;4993708;28;20454;-53
2023/11/01 03:53:19;;;;;;;0.30;0.20;;;;;;;14.55;99.19;99302.19;4993498;28;20580;-52
2023/11/01 03:55:45;;;;;;;4.10;2.30;;;;;;;14.48;98.97;99302.53;4993472;28;20881;-53
2023/11/01 03:58:12;;;;;;;0.30;0.20;;;;;;;14.52;99.02;99298.72;4993837;28;20457;-53
2023/11/01 04:00:38;;;;;;;0.30;0.20;;;;;;;14.50;98.93;99300.63;4993578;28;20763;-52
2023/11/01 04:03:05;;;;;;;0.30;0.20;;;;;;;14.55;98.92;99295.00;4993564;28;20453;-53
2023/11/01 04:05:31;;;;;;;0.30;0.20;;;;;;;14.48;99.23;99296.31;5037835;22;20484;-49
2023/11/01 04:07:58;;;;;;;0.30;0.20;;;;;;;14.58;98.93;99299.31;5032609;28;20423;-49
2023/11/01 04:10:24;;;;;;;0.30;0.20;;;;;;;14.43;99.21;99293.91;5018997;28;20918;-49
2023/11/01 04:12:51;;;;;;;0.30;0.20;;;;;;;14.47;98.85;99283.91;5022586;28;20433;-49
2023/11/01 04:15:18;;;;;;;0.33;0.20;;;;;;;14.45;98.88;99292.03;5023145;28;20545;-49
2023/11/01 04:17:44;;;;;;;0.30;0.20;;;;;;;14.24;99.58;99287.91;5032723;28;20483;-49
2023/11/01 04:20:11;;;;;;;0.30;0.20;;;;;;;14.31;99.96;99283.94;5032435;28;20457;-49
2023/11/01 04:22:38;;;;;;;0.30;0.20;;;;;;;14.35;99.39;99288.16;5032725;28;20946;-49
2023/11/01 04:25:06;;;;;;;0.30;0.20;;;;;;;14.33;99.57;99284.72;5032212;28;20964;-49
2023/11/01 04:27:34;;;;;;;0.30;0.20;;;;;;;14.36;99.13;99279.16;5032743;28;20514;-50
2023/11/01 04:30:00;;;;;;;0.30;0.20;;;;;;;14.37;98.59;99278.22;5032512;28;20450;-49
2023/11/01 04:32:28;;;;;;;0.30;0.20;;;;;;;14.44;98.77;99268.91;5032498;28;20804;-49
2023/11/01 04:34:55;;;;;;;0.30;0.20;;;;;;;14.33;98.71;99278.50;5032059;28;20498;-50
2023/11/01 04:37:24;;;;;;;0.30;0.20;;;;;;;14.28;99.63;99276.13;5032442;28;20553;-49
2023/11/01 04:39:50;;;;;;;0.30;0.20;;;;;;;14.29;99.31;99274.31;5032429;28;20457;-49
2023/11/01 04:42:17;;;;;;;0.60;0.60;;;;;;;14.36;99.08;99276.50;5032190;28;20451;-51
2023/11/01 04:44:46;;;;;;;0.30;0.20;;;;;;;14.33;99.14;99281.19;5032227;28;20442;-49
2023/11/01 04:47:13;;;;;;;0.30;0.20;;;;;;;14.29;98.77;99277.84;5032102;28;20940;-50
2023/11/01 04:49:40;;;;;;;0.30;0.20;;;;;;;14.33;98.96;99275.81;5032012;28;20463;-49
2023/11/01 04:52:07;;;;;;;0.30;0.20;;;;;;;14.37;98.83;99275.53;5032268;28;20521;-49
2023/11/01 04:54:33;;;;;;;0.30;0.20;;;;;;;14.36;98.94;99278.31;5032263;28;20552;-49
2023/11/01 04:57:03;;;;;;;0.30;0.20;;;;;;;14.50;98.92;99270.34;5032258;28;20453;-49
2023/11/01 04:59:31;;;;;;;0.30;0.20;;;;;;;14.38;98.81;99271.91;5032032;28;20542;-49
2023/11/01 05:01:57;;;;;;;0.30;0.20;;;;;;;14.50;98.90;99265.00;5031718;28;20501;-50
2023/11/01 05:04:24;;;;;;;0.30;0.20;;;;;;;14.46;98.49;99258.97;5031702;28;20832;-49
2023/11/01 05:06:51;;;;;;;0.30;0.20;;;;;;;14.53;97.95;99254.13;5017727;28;20903;-49
2023/11/01 05:09:18;;;;;;;0.30;0.20;;;;;;;14.54;98.43;99255.00;5019970;28;20427;-49
2023/11/01 05:11:46;;;;;;;0.30;0.20;;;;;;;14.68;97.47;99249.66;5032101;28;20444;-49
2023/11/01 05:14:14;;;;;;;0.30;0.20;;;;;;;14.60;97.69;99251.94;5030631;28;20538;-49
2023/11/01 05:16:40;;;;;;;0.30;0.20;;;;;;;14.48;98.21;99256.22;5031825;28;20546;-49
2023/11/01 05:19:08;;;;;;;0.30;0.20;;;;;;;14.44;98.49;99255.53;5031849;28;20952;-49
2023/11/01 05:21:38;;;;;;;0.30;0.20;;;;;;;14.45;98.31;99257.25;5031679;28;20819;-49
2023/11/01 05:24:05;;;;;;;0.30;0.20;;;;;;;14.44;98.27;99252.88;5034856;28;20838;-49
2023/11/01 05:26:34;;;;;;;0.30;0.20;;;;;;;14.48;98.46;99258.88;5035633;28;20490;-49
2023/11/01 05:29:02;;;;;;;0.30;0.20;;;;;;;14.48;98.32;99245.50;5036022;28;20930;-49
2023/11/01 05:31:29;;;;;;;0.30;0.20;;;;;;;14.48;98.45;99248.19;5035507;28;20976;-50
2023/11/01 05:33:56;;;;;;;0.30;0.20;;;;;;;14.42;98.15;99249.41;5035475;28;20963;-49
2023/11/01 05:36:23;;;;;;;0.30;0.20;;;;;;;14.50;97.59;99252.47;5035365;28;20794;-49
2023/11/01 05:38:49;;;;;;;0.30;0.20;;;;;;;14.54;97.42;99252.31;5035908;28;20456;-49
2023/11/01 05:41:16;;;;;;;0.30;0.20;;;;;;;14.54;97.13;99247.84;5035197;28;20448;-49
2023/11/01 05:43:42;;;;;;;0.30;0.20;;;;;;;14.58;97.84;99248.50;5035123;28;20444;-49
2023/11/01 05:46:09;;;;;;;0.30;0.20;;;;;;;14.53;97.04;99246.13;5035427;28;20551;-49
2023/11/01 05:48:35;;;;;;;0.30;0.20;;;;;;;14.63;97.90;99241.88;5035312;28;20489;-49
2023/11/01 05:51:03;;;;;;;0.30;0.20;;;;;;;14.57;97.48;99241.44;5035380;28;20451;-49
2023/11/01 05:53:31;;;;;;;0.30;0.30;;;;;;;14.57;97.16;99239.63;5035216;28;20497;-48
2023/11/01 05:55:59;;;;;;;0.30;0.20;;;;;;;14.56;97.12;99237.03;5034937;28;20554;-48
2023/11/01 05:58:35;;;;;;;0.30;0.20;;;;;;;14.47;97.67;99241.13;5035270;28;20454;-51
2023/11/01 06:01:02;;;;;;;0.30;0.20;;;;;;;14.63;96.64;99235.69;5023861;28;20566;-50
2023/11/01 06:03:29;;;;;;;0.30;0.20;;;;;;;14.80;96.71;99233.69;5034875;28;20476;-50
2023/11/01 06:05:57;;;;;;;0.30;0.20;;;;;;;14.53;96.76;99240.75;5027655;28;20472;-48
2023/11/01 06:08:25;;;;;;;0.30;0.20;;;;;;;14.59;96.24;99237.69;5016390;28;20511;-48
2023/11/01 06:10:53;;;;;;;0.30;0.20;;;;;;;14.48;97.00;99240.16;5034909;28;20546;-49
2023/11/01 06:13:21;;;;;;;0.30;0.20;;;;;;;14.48;97.25;99241.03;5034969;28;20455;-48
2023/11/01 06:15:49;;;;;;;0.30;0.20;;;;;;;14.49;97.45;99240.06;5034692;28;21054;-49
2023/11/01 06:18:17;;;;;;;0.30;0.20;;;;;;;14.47;97.21;99236.63;5034790;28;20426;-49
2023/11/01 06:20:44;;;;;;;0.30;0.20;;;;;;;14.44;97.07;99242.19;5034828;28;20919;-49
2023/11/01 06:23:10;;;;;;;0.30;0.20;;;;;;;14.51;97.41;99243.50;5034465;28;20452;-49
2023/11/01 06:25:37;;;;;;;0.30;0.20;;;;;;;14.56;96.54;99239.72;5034861;28;20529;-49
2023/11/01 06:28:03;;;;;;;0.30;0.20;;;;;;;14.60;96.17;99235.88;5034848;28;20426;-49
2023/11/01 06:30:30;;;;;;;0.30;0.20;;;;;;;14.42;96.91;99240.53;5034410;28;20458;-49
2023/11/01 06:32:56;;;;;;;0.30;0.20;;;;;;;14.50;96.93;99252.47;5034340;28;20526;-49
2023/11/01 06:35:23;;;;;;;0.30;0.20;;;;;;;14.53;96.78;99248.78;5034192;28;20462;-49
2023/11/01 06:37:50;;;;;;;0.30;0.20;;;;;;;14.45;96.78;99249.25;5034176;28;20452;-50
2023/11/01 06:40:17;;;;;;;0.30;0.20;;;;;;;14.46;96.93;99242.94;5034591;28;20461;-49
2023/11/01 06:42:43;;;;;;;0.30;0.20;;;;;;;14.50;96.97;99248.94;5034435;28;20492;-49
2023/11/01 06:45:11;;;;;;;0.30;0.20;;;;;;;14.45;96.97;99245.72;5034371;28;20469;-48
2023/11/01 06:47:37;;;;;;;0.30;0.20;;;;;;;14.41;96.91;99252.19;5034282;28;20541;-48
2023/11/01 06:50:05;;;;;;;0.30;0.20;;;;;;;14.44;96.98;99244.84;5034316;28;20510;-50
2023/11/01 06:52:31;;;;;;;0.30;0.20;;;;;;;14.41;96.84;99244.16;5033989;28;20969;-50
2023/11/01 06:54:58;;;;;;;0.30;0.20;;;;;;;14.49;96.40;99244.56;5034225;28;20491;-50
2023/11/01 06:57:24;;;;;;;0.30;0.20;;;;;;;14.48;96.91;99264.22;5034213;28;20875;-49
2023/11/01 06:59:51;;;;;;;0.30;0.20;;;;;;;14.55;96.44;99256.72;5034091;28;20452;-50
2023/11/01 07:02:17;;;;;;;0.30;0.20;;;;;;;14.50;96.51;99246.28;5033871;28;20436;-50
2023/11/01 07:04:44;;;;;;;0.30;0.20;;;;;;;14.57;96.47;99258.34;5033722;28;20533;-49
2023/11/01 07:07:11;;;;;;;0.30;0.20;;;;;;;14.52;96.36;99258.59;5016705;28;20541;-49
2023/11/01 07:09:40;;;;;;;0.30;0.20;;;;;;;14.60;95.74;99267.97;5025117;28;20440;-49
2023/11/01 07:12:07;;;;;;;0.30;0.20;;;;;;;14.49;96.29;99266.81;5033854;28;20488;-49
2023/11/01 07:14:34;;;;;;;0.30;0.20;;;;;;;14.44;96.64;99273.41;5033593;28;20562;-49
2023/11/01 07:17:01;;;;;;;0.30;0.20;;;;;;;14.48;96.46;99273.13;5033637;28;20443;-49
2023/11/01 07:19:27;;;;;;;0.30;0.20;;;;;;;14.66;95.87;99267.59;5033563;28;20422;-49
2023/11/01 07:21:53;;;;;;;0.30;0.20;;;;;;;14.52;96.26;99266.63;5033716;28;20426;-49
2023/11/01 07:24:20;;;;;;;0.30;0.20;;;;;;;14.64;96.12;99266.81;5033647;28;20439;-59
2023/11/01 07:26:47;;;;;;;0.30;0.20;;;;;;;14.66;96.22;99259.56;5033621;28;20434;-49
2023/11/01 07:29:13;;;;;;;0.30;0.20;;;;;;;14.60;96.12;99259.94;5033617;28;20448;-50
2023/11/01 07:31:39;;;;;;;0.30;0.20;;;;;;;14.70;95.84;99263.78;5033418;28;20418;-49
2023/11/01 07:34:06;;;;;;;0.60;0.60;;;;;;;14.62;95.77;99260.72;5033069;28;20446;-49
2023/11/01 07:36:32;;;;;;;0.30;0.20;;;;;;;14.71;95.56;99261.00;5033560;28;20501;-49
2023/11/01 07:38:59;;;;;;;0.30;0.20;;;;;;;14.76;95.47;99258.03;5033471;28;20422;-49
2023/11/01 07:41:25;;;;;;;0.30;0.20;;;;;;;14.77;95.17;99257.94;5033287;28;20471;-49
2023/11/01 07:43:52;;;;;;;0.30;0.20;;;;;;;14.86;95.12;99255.66;5033359;28;20455;-49
2023/11/01 07:46:18;;;;;;;0.30;0.20;;;;;;;14.86;95.25;99248.50;5032575;28;20454;-49
2023/11/01 07:48:45;;;;;;;0.30;0.20;;;;;;;14.96;94.65;99244.28;5033309;28;20437;-50
2023/11/01 07:51:11;;;;;;;0.40;0.30;;;;;;;15.08;93.76;99243.50;5033207;28;20429;-50
2023/11/01 07:53:37;;;;;;;0.30;0.20;;;;;;;14.97;93.45;99239.78;5033181;28;20458;-50
2023/11/01 07:56:04;;;;;;;0.30;0.20;;;;;;;15.09;93.61;99239.88;5033123;28;20498;-50
2023/11/01 07:58:31;;;;;;;0.30;0.20;;;;;;;15.45;92.82;99235.75;5032863;28;20455;-50
2023/11/01 08:00:59;;;;;;;0.30;0.20;;;;;;;15.20;92.87;99240.97;5032777;28;20451;-50
2023/11/01 08:03:25;;;;;;;0.30;0.20;;;;;;;15.18;93.62;99232.19;5032510;28;20473;-50
2023/11/01 08:05:52;;;;;;;0.30;0.20;;;;;;;15.19;93.54;99239.25;5025228;28;20451;-50
2023/11/01 08:08:18;;;;;;;0.30;0.20;;;;;;;15.25;93.78;99244.25;5013806;28;20427;-49
2023/11/01 08:10:45;;;;;;;0.30;0.20;;;;;;;15.20;92.69;99251.69;5032594;28;20422;-49
2023/11/01 08:13:11;;;;;;;0.30;0.20;;;;;;;15.05;92.97;99245.50;5032505;28;20441;-49
2023/11/01 08:15:38;;;;;;;0.30;0.20;;;;;;;14.98;93.17;99245.03;5032181;28;20466;-49
2023/11/01 08:18:04;;;;;;;0.30;0.20;;;;;;;15.00;92.93;99247.63;5032319;28;20447;-49
2023/11/01 08:20:31;;;;;;;0.30;0.20;;;;;;;15.09;92.56;99245.22;5032636;28;20453;-49
2023/11/01 08:22:57;;;;;;;0.30;0.20;;;;;;;15.19;91.70;99236.59;5032379;28;20590;-49
2023/11/01 08:25:24;;;;;;;0.30;0.20;;;;;;;15.34;92.00;99236.44;5032348;28;20474;-50
2023/11/01 08:27:51;;;;;;;0.30;0.20;;;;;;;15.31;91.64;99233.13;5032437;28;20905;-49
2023/11/01 08:30:18;;;;;;;2.00;1.90;;;;;;;15.54;91.34;99235.16;5032012;28;20456;-49
2023/11/01 08:32:45;;;;;;;0.30;0.20;;;;;;;15.26;90.69;99236.09;5031124;28;20447;-49
2023/11/01 08:35:12;;;;;;;0.30;0.20;;;;;;;15.39;90.44;99226.31;5032211;28;20502;-49
2023/11/01 08:37:39;;;;;;;0.30;0.20;;;;;;;15.68;89.29;99236.97;5032279;28;20422;-49
2023/11/01 08:40:07;;;;;;;0.30;0.20;;;;;;;15.61;89.38;99231.13;5032250;28;20546;-49
2023/11/01 08:42:33;;;;;;;0.30;0.20;;;;;;;15.56;89.86;99229.69;5032163;28;20490;-49
2023/11/01 08:45:00;;;;;;;0.30;0.20;;;;;;;15.38;90.91;99229.97;5031947;28;20952;-49
2023/11/01 08:47:41;;;;;;;0.30;0.20;;;;;;;15.39;90.32;99228.13;5032002;28;20465;-49
2023/11/01 08:50:12;;;;;;;0.30;0.20;;;;;;;15.36;90.02;99231.03;5032300;28;20432;-50
2023/11/01 08:52:40;;;;;;;0.30;0.20;;;;;;;15.66;89.27;99222.81;5032132;28;20531;-49
2023/11/01 08:55:07;;;;;;;0.30;0.20;;;;;;;15.56;89.38;99229.69;5031751;28;21011;-50
2023/11/01 08:57:34;;;;;;;0.30;0.20;;;;;;;15.45;89.73;99234.91;5034253;28;20447;-50
2023/11/01 09:00:01;;;;;;;0.30;0.20;;;;;;;15.35;90.43;99227.50;5036391;28;20808;-49
2023/11/01 09:02:28;;;;;;;0.30;0.20;;;;;;;15.29;90.90;99227.00;5028394;28;20465;-50
2023/11/01 09:04:56;;;;;;;0.30;0.20;;;;;;;15.44;90.62;99225.16;5035782;28;20467;-50
2023/11/01 09:07:22;;;;;;;0.30;0.20;;;;;;;15.63;90.16;99223.03;5017717;28;20430;-49
2023/11/01 09:09:52;;;;;;;0.30;0.20;;;;;;;15.41;90.40;99227.06;5028209;28;20448;-50
2023/11/01 09:12:19;;;;;;;0.30;0.20;;;;;;;15.37;90.91;99232.75;5036337;28;20472;-50
2023/11/01 09:14:46;;;;;;;0.30;0.20;;;;;;;15.29;90.71;99224.34;5036001;28;20540;-50
2023/11/01 09:17:13;;;;;;;0.30;0.20;;;;;;;15.40;90.63;99228.03;5035928;28;20851;-50
2023/11/01 09:19:40;;;;;;;0.30;0.20;;;;;;;15.54;90.54;99226.28;5036057;28;20995;-50
2023/11/01 09:22:08;;;;;;;0.30;0.20;;;;;;;15.40;90.61;99229.84;5022603;28;20554;-50
2023/11/01 09:24:35;;;;;;;0.30;0.20;;;;;;;15.35;91.36;99230.16;5035443;28;20450;-50
2023/11/01 09:27:02;;;;;;;0.30;0.20;;;;;;;15.52;91.23;99222.84;5035707;28;20941;-50
2023/11/01 09:29:28;;;;;;;0.30;0.20;;;;;;;15.59;90.47;99230.38;5036039;28;20448;-50
2023/11/01 09:31:55;;;;;;;0.30;0.20;;;;;;;15.68;90.73;99237.81;5035509;28;20422;-50
2023/11/01 09:34:23;;;;;;;0.30;0.20;;;;;;;15.52;89.97;99234.41;5035560;28;20466;-49
2023/11/01 09:36:50;;;;;;;0.30;0.20;;;;;;;15.65;90.44;99232.66;5035640;28;20459;-50
2023/11/01 09:39:17;;;;;;;0.30;0.20;;;;;;;15.63;89.57;99236.41;5035582;28;20447;-50
2023/11/01 09:41:54;;;;;;;0.30;0.20;;;;;;;15.59;90.11;99237.53;5035535;28;20974;-50
2023/11/01 09:44:21;;;;;;;0.30;0.20;;;;;;;15.96;89.02;99242.19;5035361;28;20454;-50
2023/11/01 09:46:48;;;;;;;0.30;0.20;;;;;;;15.68;89.94;99235.13;5035607;28;21002;-49
2023/11/01 09:49:16;;;;;;;0.30;0.20;;;;;;;15.74;89.48;99241.03;5034162;28;20497;-50
2023/11/01 09:51:44;;;;;;;0.30;0.20;;;;;;;16.04;89.43;99238.16;5035400;28;20454;-49
2023/11/01 09:54:11;;;;;;;0.30;0.20;;;;;;;15.83;89.42;99235.94;5035349;28;20554;-49
2023/11/01 09:56:41;;;;;;;0.30;0.20;;;;;;;15.72;89.66;99233.09;5035214;28;20487;-50
2023/11/01 09:59:08;;;;;;;0.30;0.20;;;;;;;15.96;88.77;99236.81;5035426;28;20872;-49
2023/11/01 10:01:37;;;;;;;0.30;0.20;;;;;;;15.87;89.23;99229.41;5035293;28;20447;-49
2023/11/01 10:04:04;;;;;;;0.30;0.20;;;;;;;15.99;89.25;99241.97;5034449;28;20483;-50
2023/11/01 10:06:33;;;;;;;0.30;0.20;;;;;;;15.89;89.17;99240.88;5023476;28;20527;-50
2023/11/01 10:09:00;;;;;;;0.30;0.20;;;;;;;15.86;90.04;99241.09;5020730;28;20483;-50
2023/11/01 10:11:28;;;;;;;0.30;0.20;;;;;;;16.03;89.18;99237.25;5035454;28;20553;-49
2023/11/01 10:13:56;;;;;;;0.30;0.20;;;;;;;15.96;89.72;99230.59;5035515;28;20558;-51
2023/11/01 10:16:23;;;;;;;0.30;0.20;;;;;;;16.03;90.07;99228.34;5034972;28;20484;-51
2023/11/01 10:18:49;;;;;;;0.30;0.20;;;;;;;15.92;90.11;99226.44;5034832;28;21007;-51
2023/11/01 10:21:16;;;;;;;0.30;0.20;;;;;;;15.97;89.98;99222.47;5035025;28;20543;-51
2023/11/01 10:23:42;;;;;;;0.30;0.20;;;;;;;16.15;89.07;99209.59;5034750;28;20430;-51
2023/11/01 10:26:09;;;;;;;0.30;0.20;;;;;;;16.23;88.85;99209.94;5035028;28;20443;-51
2023/11/01 10:28:41;;;;;;;0.30;0.20;;;;;;;16.34;88.63;99209.22;5035017;28;20459;-51
2023/11/01 10:31:12;;;;;;;0.30;0.20;;;;;;;16.35;89.04;99196.66;5034774;28;20490;-51
2023/11/01 10:33:40;;;;;;;0.30;0.20;;;;;;;16.06;89.53;99204.03;5034963;28;20554;-51
2023/11/01 10:36:07;;;;;;;0.30;0.20;;;;;;;16.14;89.37;99197.16;5034572;28;20574;-51
2023/11/01 10:38:33;;;;;;;0.30;0.20;;;;;;;16.22;88.98;99188.63;5034565;28;20497;-51
2023/11/01 10:41:02;;;;;;;0.30;0.20;;;;;;;16.25;89.19;99193.75;5034522;28;20541;-51
2023/11/01 10:43:30;;;;;;;0.30;0.20;;;;;;;16.22;90.25;99197.50;5034490;28;20521;-51
2023/11/01 10:45:59;;;;;;;0.30;0.20;;;;;;;16.05;89.62;99187.09;5034368;28;20468;-51
2023/11/01 10:48:29;;;;;;;0.30;0.20;;;;;;;16.22;89.22;99184.09;5034428;28;20529;-51
2023/11/01 10:50:57;;;;;;;0.30;0.20;;;;;;;16.21;89.39;99185.06;5034198;28;20451;-51
2023/11/01 10:53:25;;;;;;;0.40;0.40;;;;;;;16.32;89.56;99189.69;5034330;28;20452;-53
2023/11/01 10:55:55;;;;;;;0.30;0.20;;;;;;;16.37;89.56;99179.50;5033963;28;20491;-51
2023/11/01 10:58:24;;;;;;;9.63;8.73;;;;;;;16.36;88.55;99166.19;5033869;28;20426;-51
2023/11/01 11:00:57;;;;;;;0.30;0.20;;;;;;;16.60;88.39;99172.50;5033844;28;20504;-51
2023/11/01 11:03:33;;;;;;;0.30;0.20;;;;;;;16.97;87.59;99161.81;5034342;28;20447;-51
2023/11/01 11:06:08;;;;;;;0.30;0.20;;;;;;;16.63;87.56;99155.31;5026110;28;20475;-51
2023/11/01 11:08:34;;;;;;;0.30;0.20;;;;;;;16.80;87.50;99145.13;5016107;28;20418;-51
2023/11/01 11:11:17;;;;;;;0.30;0.20;;;;;;;16.62;88.18;99143.75;5034094;28;20782;-51
2023/11/01 11:13:49;;;;;;;0.30;0.20;;;;;;;16.82;86.80;99139.63;5033678;28;20509;-51
2023/11/01 11:16:20;;;;;;;0.30;0.20;;;;;;;16.40;88.26;99138.19;5033558;28;20574;-51
2023/11/01 11:18:55;;;;;;;0.30;0.20;;;;;;;16.32;89.14;99128.00;5033776;28;20497;-51
2023/11/01 11:21:47;;;;;;;0.30;0.20;;;;;;;16.54;88.21;99122.81;5033027;28;20418;-51
2023/11/01 11:24:39;;;;;;;0.30;0.20;;;;;;;16.71;87.81;99107.34;5024180;28;20993;-51
2023/11/01 11:27:48;;;;;;;0.30;0.20;;;;;;;16.84;87.46;99098.28;5021914;28;20437;-52
2023/11/01 11:30:15;;;;;;;0.30;0.20;;;;;;;16.70;87.38;99087.72;5020577;28;20962;-51
2023/11/01 11:32:41;;;;;;;0.30;0.20;;;;;;;16.95;87.68;99088.59;5033331;28;20948;-52